Cranbrook Airport

CYXC | YXC

Cranbrook , British-Columbia , Canada

Wednesday, October 23rd, 2019 | 23:44

Weather

CYXC 240500Z 21004KT 180V260 25SM FEW080 FEW240 00/M07 A3039 RMK AC1CI2 AC TR SLP319

Charts

No Charts Available

Gates

17 Available

Runways

1 Available

Events

No events for this airport


New event